TimeCDT,TemperatureF,Dew PointF,Humidity,Sea Level PressureIn,VisibilityMPH,Wind Direction,Wind SpeedMPH,Gust SpeedMPH,PrecipitationIn,Events,Conditions,WindDirDegrees,DateUTC
12:15 AM,69.8,64.4,83,29.94,10.0,Calm,Calm,-,N/A,,Scattered Clouds,0,2013-07-20 05:15:00
12:35 AM,69.8,64.4,83,29.94,10.0,Calm,Calm,-,N/A,,Scattered Clouds,0,2013-07-20 05:35:00
12:55 AM,69.8,64.4,83,29.94,10.0,NE,3.5,-,N/A,,Scattered Clouds,50,2013-07-20 05:55:00
1:15 AM,69.8,62.6,78,29.95,10.0,ENE,3.5,-,N/A,,Scattered Clouds,60,2013-07-20 06:15:00
1:35 AM,69.8,62.6,78,29.95,10.0,NE,3.5,-,N/A,,Scattered Clouds,40,2013-07-20 06:35:00
1:55 AM,68.0,62.6,83,29.95,10.0,NE,3.5,-,N/A,,Scattered Clouds,40,2013-07-20 06:55:00
2:15 AM,69.8,62.6,78,29.95,10.0,NE,3.5,-,N/A,,Scattered Clouds,40,2013-07-20 07:15:00
2:35 AM,68.0,62.6,83,29.95,10.0,NE,4.6,-,N/A,,Scattered Clouds,40,2013-07-20 07:35:00
2:55 AM,68.0,62.6,83,29.95,10.0,NE,4.6,-,N/A,,Scattered Clouds,50,2013-07-20 07:55:00
3:15 AM,68.0,62.6,83,29.94,10.0,ENE,4.6,-,N/A,,Scattered Clouds,60,2013-07-20 08:15:00
3:35 AM,66.2,60.8,83,29.94,10.0,ENE,4.6,-,N/A,,Clear,70,2013-07-20 08:35:00
3:55 AM,68.0,60.8,78,29.95,10.0,Calm,Calm,-,N/A,,Scattered Clouds,0,2013-07-20 08:55:00
4:15 AM,66.2,60.8,83,29.95,10.0,Calm,Calm,-,N/A,,Scattered Clouds,0,2013-07-20 09:15:00
4:35 AM,64.4,60.8,88,29.94,10.0,NNE,3.5,-,N/A,,Scattered Clouds,30,2013-07-20 09:35:00
4:55 AM,64.4,59.0,83,29.94,10.0,Calm,Calm,-,N/A,,Scattered Clouds,0,2013-07-20 09:55:00
5:15 AM,64.4,59.0,83,29.94,10.0,NE,3.5,-,N/A,,Scattered Clouds,40,2013-07-20 10:15:00
5:35 AM,64.4,59.0,83,29.94,10.0,Calm,Calm,-,N/A,,Scattered Clouds,0,2013-07-20 10:35:00
5:55 AM,64.4,59.0,83,29.93,10.0,Calm,Calm,-,N/A,,Scattered Clouds,0,2013-07-20 10:55:00
6:15 AM,64.4,57.2,77,29.93,10.0,Calm,Calm,-,N/A,,Clear,0,2013-07-20 11:15:00
6:35 AM,62.6,57.2,82,29.94,10.0,Calm,Calm,-,N/A,,Clear,0,2013-07-20 11:35:00
6:55 AM,64.4,60.8,88,29.94,10.0,Calm,Calm,-,N/A,,Clear,0,2013-07-20 11:55:00
7:15 AM,66.2,60.8,83,29.95,10.0,Calm,Calm,-,N/A,,Clear,0,2013-07-20 12:15:00
7:35 AM,68.0,60.8,78,29.95,10.0,NE,3.5,-,N/A,,Clear,40,2013-07-20 12:35:00
7:55 AM,69.8,62.6,78,29.95,10.0,Calm,Calm,-,N/A,,Clear,0,2013-07-20 12:55:00
8:15 AM,73.4,62.6,69,29.95,10.0,Calm,Calm,-,N/A,,Clear,0,2013-07-20 13:15:00
8:35 AM,73.4,62.6,69,29.96,10.0,East,3.5,-,N/A,,Clear,90,2013-07-20 13:35:00
8:55 AM,73.4,64.4,73,29.96,10.0,NE,3.5,-,N/A,,Clear,40,2013-07-20 13:55:00
9:15 AM,73.4,62.6,69,29.96,10.0,East,4.6,-,N/A,,Clear,80,2013-07-20 14:15:00
9:35 AM,75.2,62.6,65,29.97,10.0,East,6.9,-,N/A,,Clear,80,2013-07-20 14:35:00
9:55 AM,77.0,62.6,61,29.98,10.0,East,4.6,-,N/A,,Clear,100,2013-07-20 14:55:00
10:15 AM,77.0,62.6,61,30.01,10.0,Calm,Calm,-,N/A,,Clear,0,2013-07-20 15:15:00
10:35 AM,78.8,62.6,57,30.01,10.0,ESE,3.5,-,N/A,,Clear,110,2013-07-20 15:35:00
10:55 AM,80.6,62.6,54,30.00,10.0,Calm,Calm,-,N/A,,Clear,0,2013-07-20 15:55:00
11:15 AM,80.6,62.6,54,30.00,10.0,Calm,Calm,-,N/A,,Clear,0,2013-07-20 16:15:00
11:35 AM,82.4,64.4,54,30.00,10.0,NE,5.8,-,N/A,,Clear,40,2013-07-20 16:35:00
11:55 AM,82.4,64.4,54,30.00,10.0,NNE,3.5,-,N/A,,Clear,30,2013-07-20 16:55:00
12:15 PM,82.4,64.4,54,29.99,10.0,NNE,6.9,-,N/A,,Clear,30,2013-07-20 17:15:00
12:35 PM,82.4,62.6,51,29.98,10.0,NE,6.9,-,N/A,,Clear,40,2013-07-20 17:35:00
12:55 PM,82.4,62.6,51,29.98,10.0,NE,4.6,-,N/A,,Clear,50,2013-07-20 17:55:00
1:15 PM,82.4,62.6,51,29.96,10.0,ENE,5.8,-,N/A,,Clear,70,2013-07-20 18:15:00
1:35 PM,84.2,60.8,45,29.97,10.0,Calm,Calm,-,N/A,,Clear,0,2013-07-20 18:35:00
1:55 PM,84.2,60.8,45,29.96,10.0,Calm,Calm,-,N/A,,Clear,0,2013-07-20 18:55:00
2:15 PM,84.2,60.8,45,29.95,10.0,SSE,3.5,-,N/A,,Clear,150,2013-07-20 19:15:00
2:35 PM,84.2,59.0,42,29.96,10.0,SSE,3.5,-,N/A,,Clear,160,2013-07-20 19:35:00
2:55 PM,84.2,62.6,48,29.95,10.0,SSE,3.5,-,N/A,,Clear,160,2013-07-20 19:55:00
3:15 PM,84.2,62.6,48,29.94,10.0,SSE,8.1,-,N/A,,Clear,160,2013-07-20 20:15:00
3:35 PM,82.4,62.6,51,29.93,10.0,South,8.1,-,N/A,,Clear,170,2013-07-20 20:35:00
3:55 PM,82.4,62.6,51,29.93,10.0,SE,5.8,-,N/A,,Clear,140,2013-07-20 20:55:00
4:15 PM,82.4,62.6,51,29.93,10.0,SSE,3.5,-,N/A,,Clear,150,2013-07-20 21:15:00
4:35 PM,84.2,62.6,48,29.93,10.0,ESE,3.5,-,N/A,,Clear,120,2013-07-20 21:35:00
4:55 PM,84.2,60.8,45,29.92,10.0,Calm,Calm,-,N/A,,Clear,0,2013-07-20 21:55:00
5:15 PM,84.2,59.0,42,29.93,10.0,Calm,Calm,-,N/A,,Clear,0,2013-07-20 22:15:00
5:35 PM,84.2,59.0,42,29.93,10.0,Calm,Calm,-,N/A,,Clear,0,2013-07-20 22:35:00
5:55 PM,86.0,60.8,43,29.91,10.0,SE,4.6,-,N/A,,Clear,130,2013-07-20 22:55:00
6:15 PM,84.2,62.6,48,29.90,10.0,SSE,4.6,-,N/A,,Clear,150,2013-07-20 23:15:00
6:35 PM,84.2,60.8,45,29.90,10.0,ESE,3.5,-,N/A,,Clear,110,2013-07-20 23:35:00
6:55 PM,84.2,62.6,48,29.89,10.0,ESE,4.6,-,N/A,,Clear,110,2013-07-20 23:55:00
7:15 PM,84.2,64.4,51,29.88,10.0,ESE,3.5,-,N/A,,Clear,120,2013-07-21 00:15:00
7:35 PM,82.4,66.2,58,29.87,10.0,South,4.6,-,N/A,,Clear,180,2013-07-21 00:35:00
7:55 PM,80.6,66.2,61,29.88,10.0,South,8.1,-,N/A,,Clear,180,2013-07-21 00:55:00
8:15 PM,80.6,66.2,61,29.88,10.0,South,3.5,-,N/A,,Clear,170,2013-07-21 01:15:00
8:35 PM,80.6,64.4,58,29.89,10.0,Calm,Calm,-,N/A,,Clear,0,2013-07-21 01:35:00
8:55 PM,77.0,64.4,65,29.89,10.0,Calm,Calm,-,N/A,,Clear,0,2013-07-21 01:55:00
9:15 PM,75.2,64.4,69,29.90,10.0,SSW,4.6,-,N/A,,Clear,200,2013-07-21 02:15:00
9:35 PM,73.4,64.4,73,29.92,10.0,Calm,Calm,-,N/A,,Scattered Clouds,0,2013-07-21 02:35:00
9:55 PM,71.6,64.4,78,29.94,10.0,NNE,3.5,-,N/A,,Clear,20,2013-07-21 02:55:00
10:15 PM,69.8,64.4,83,29.95,10.0,NNE,4.6,-,N/A,,Scattered Clouds,20,2013-07-21 03:15:00
10:35 PM,71.6,64.4,78,29.96,10.0,ENE,4.6,-,N/A,,Scattered Clouds,60,2013-07-21 03:35:00
10:55 PM,71.6,64.4,78,29.95,10.0,NE,3.5,-,N/A,,Scattered Clouds,50,2013-07-21 03:55:00
11:15 PM,69.8,62.6,78,29.95,10.0,Calm,Calm,-,N/A,,Clear,0,2013-07-21 04:15:00
11:35 PM,69.8,62.6,78,29.94,10.0,Calm,Calm,-,N/A,,Clear,0,2013-07-21 04:35:00
11:55 PM,69.8,62.6,78,29.93,10.0,Calm,Calm,-,N/A,,Scattered Clouds,0,2013-07-21 04:55:00